Time;durP1;ratioP1;P1;durP2;ratioP2;P2;SDS_P1;SDS_P2;PMS_P1;PMS_P2;Temp;Humidity;BMP_temperature;BMP_pressure;BME280_temperature;BME280_humidity;BME280_pressure;Samples;Min_cycle;Max_cycle;Signal;HPM_P1;HPM_P2
2022/10/16 00:06:53;;;;;;;1.40;0.53;;;21.20;53.70;;;;;;21039612;28;20506;-74
2022/10/16 00:16:54;;;;;;;0.45;0.30;;;21.30;53.80;;;;;;21045144;28;20289;-73
2022/10/16 00:26:55;;;;;;;1.13;0.53;;;21.20;53.70;;;;;;21013382;28;20032;-75
2022/10/16 00:36:55;;;;;;;1.10;0.60;;;21.20;53.70;;;;;;21016095;28;20301;-74
2022/10/16 00:46:56;;;;;;;0.52;0.40;;;21.20;53.70;;;;;;21021121;28;20078;-74
2022/10/16 00:57:01;;;;;;;0.75;0.50;;;21.20;53.70;;;;;;21004308;28;20036;-74
2022/10/16 01:07:06;;;;;;;0.57;0.57;;;21.10;53.80;;;;;;21044057;28;20482;-76
2022/10/16 01:17:12;;;;;;;0.93;0.40;;;21.10;53.80;;;;;;21063723;28;20032;-75
2022/10/16 01:27:26;;;;;;;0.57;0.47;;;21.10;53.80;;;;;;21035650;28;20123;-73
2022/10/16 01:38:03;;;;;;;1.67;0.63;;;21.10;53.90;;;;;;21030417;28;20036;-74
2022/10/16 01:48:05;;;;;;;;;;;21.00;53.90;;;;;;20996169;28;20402;-74
2022/10/16 01:58:06;;;;;;;0.63;0.40;;;21.00;53.90;;;;;;21326354;22;20335;-75
2022/10/16 02:08:07;;;;;;;0.45;0.30;;;21.00;54.00;;;;;;20947788;28;20382;-74
2022/10/16 02:18:08;;;;;;;0.75;0.50;;;21.00;54.10;;;;;;20970853;28;20038;-75
2022/10/16 02:28:31;;;;;;;0.93;0.40;;;21.00;54.10;;;;;;20923395;28;20203;-74
2022/10/16 02:38:32;;;;;;;0.57;0.40;;;20.90;54.20;;;;;;20909823;28;20120;-74
2022/10/16 02:48:32;;;;;;;0.43;0.30;;;21.00;54.30;;;;;;20943720;28;20115;-73
2022/10/16 02:58:33;;;;;;;0.60;0.50;;;20.90;54.30;;;;;;20968175;28;20033;-74
2022/10/16 03:08:34;;;;;;;0.85;0.40;;;20.80;54.30;;;;;;20942028;28;20382;-73
2022/10/16 03:18:35;;;;;;;0.70;0.50;;;20.80;54.40;;;;;;20937219;28;20035;-74
2022/10/16 03:28:35;;;;;;;0.57;0.40;;;20.80;54.40;;;;;;20951883;28;20017;-73
2022/10/16 03:38:36;;;;;;;0.55;0.40;;;20.80;54.50;;;;;;20969558;28;20044;-75
2022/10/16 03:48:36;;;;;;;0.38;0.35;;;20.80;54.50;;;;;;20959737;28;20046;-74
2022/10/16 03:58:37;;;;;;;0.60;0.40;;;20.70;54.60;;;;;;20936390;28;20031;-74
2022/10/16 04:08:39;;;;;;;0.35;0.35;;;20.80;54.70;;;;;;20917062;28;20028;-73
2022/10/16 04:18:39;;;;;;;0.47;0.30;;;20.70;54.70;;;;;;20940764;28;20115;-74
2022/10/16 04:28:40;;;;;;;0.70;0.32;;;20.60;54.70;;;;;;20922381;28;20496;-74
2022/10/16 04:38:40;;;;;;;0.60;0.40;;;20.60;54.80;;;;;;20905127;28;20044;-73
2022/10/16 04:48:41;;;;;;;0.80;0.40;;;20.60;54.90;;;;;;20918259;28;20098;-74
2022/10/16 04:58:41;;;;;;;0.65;0.32;;;20.60;54.90;;;;;;20938604;28;20366;-74
2022/10/16 05:08:42;;;;;;;0.43;0.33;;;20.60;55.00;;;;;;20941916;28;20056;-73
2022/10/16 05:18:43;;;;;;;0.35;0.20;;;20.60;55.10;;;;;;20909991;28;20043;-74
2022/10/16 05:28:43;;;;;;;0.57;0.47;;;20.60;55.10;;;;;;20949259;28;20112;-73
2022/10/16 05:38:44;;;;;;;1.33;0.40;;;20.50;55.10;;;;;;20945090;28;20043;-73
2022/10/16 05:48:45;;;;;;;0.20;0.20;;;20.50;55.20;;;;;;20953218;28;20028;-74
2022/10/16 05:58:45;;;;;;;0.20;0.20;;;20.50;55.20;;;;;;20895180;28;20402;-71
2022/10/16 06:08:46;;;;;;;0.45;0.30;;;20.50;56.00;;;;;;20898436;28;20344;-75
2022/10/16 06:18:47;;;;;;;0.20;0.20;;;20.50;55.40;;;;;;20878243;28;20124;-73
2022/10/16 06:28:48;;;;;;;0.30;0.30;;;20.40;55.40;;;;;;20887465;28;20390;-74
2022/10/16 06:38:49;;;;;;;0.30;0.30;;;20.30;55.40;;;;;;20907816;28;20491;-74
2022/10/16 06:48:49;;;;;;;0.30;0.20;;;20.30;55.50;;;;;;20945789;28;20791;-75
2022/10/16 06:58:50;;;;;;;0.50;0.28;;;20.30;55.60;;;;;;20949420;28;20032;-72
2022/10/16 07:08:51;;;;;;;1.30;0.30;;;20.30;55.60;;;;;;20925242;28;20036;-75
2022/10/16 07:18:57;;;;;;;0.63;0.30;;;20.30;55.60;;;;;;20917042;28;20318;-82
2022/10/16 07:28:58;;;;;;;0.30;0.30;;;20.30;55.70;;;;;;20908944;28;20287;-80
2022/10/16 07:38:59;;;;;;;0.50;0.40;;;20.30;55.70;;;;;;20927980;28;20103;-72
2022/10/16 07:49:00;;;;;;;0.73;0.35;;;20.30;56.00;;;;;;20913874;28;20036;-75
2022/10/16 07:59:00;;;;;;;40.33;4.53;;;20.20;55.80;;;;;;20926341;28;20037;-70
2022/10/16 08:09:01;;;;;;;13.43;1.80;;;20.20;56.20;;;;;;20941504;28;20111;-71
2022/10/16 08:19:02;;;;;;;2.90;0.95;;;19.90;57.20;;;;;;20903846;28;20041;-71
2022/10/16 08:29:03;;;;;;;0.80;0.32;;;19.90;58.20;;;;;;20944766;28;20086;-71
2022/10/16 08:39:03;;;;;;;0.90;0.35;;;19.90;58.50;;;;;;20903392;28;20045;-70
2022/10/16 08:49:05;;;;;;;3.53;0.52;;;19.90;58.50;;;;;;20921575;28;20024;-70
2022/10/16 08:59:09;;;;;;;0.50;0.43;;;20.00;58.60;;;;;;20939277;28;20043;-73
2022/10/16 09:09:25;;;;;;;4.57;0.70;;;20.10;58.50;;;;;;20931143;28;20044;-72
2022/10/16 09:19:28;;;;;;;5.00;0.45;;;20.40;57.60;;;;;;20908711;28;20574;-75
2022/10/16 09:29:29;;;;;;;0.63;0.30;;;20.60;56.90;;;;;;20926340;28;20035;-75
2022/10/16 09:39:29;;;;;;;1.45;0.35;;;20.70;56.50;;;;;;20878504;28;20040;-71
2022/10/16 09:49:30;;;;;;;2.25;0.40;;;20.80;56.20;;;;;;20897682;28;20507;-72
2022/10/16 09:59:31;;;;;;;0.77;0.50;;;20.90;56.00;;;;;;20905190;28;20090;-71
2022/10/16 10:09:38;;;;;;;1.88;0.50;;;21.10;55.60;;;;;;20939599;28;20115;-73
2022/10/16 10:19:46;;;;;;;1.13;0.50;;;21.20;55.40;;;;;;20946906;28;20041;-76
2022/10/16 10:29:54;;;;;;;2.00;0.40;;;21.30;55.20;;;;;;20933291;28;20462;-71
2022/10/16 10:40:04;;;;;;;2.22;0.40;;;21.50;54.80;;;;;;20928882;28;20032;-75
2022/10/16 10:50:29;;;;;;;0.57;0.30;;;21.60;54.50;;;;;;20943565;28;20052;-77
2022/10/16 11:00:45;;;;;;;2.53;0.60;;;21.80;54.00;;;;;;20928681;28;20063;-76
2022/10/16 11:10:54;;;;;;;4.63;0.60;;;22.00;53.60;;;;;;20922252;28;20056;-76
2022/10/16 11:21:02;;;;;;;2.45;1.05;;;22.10;53.30;;;;;;20871616;28;20399;-75
2022/10/16 11:31:21;;;;;;;2.20;0.52;;;22.20;53.00;;;;;;20908482;28;20525;-74
2022/10/16 11:41:37;;;;;;;1.13;0.50;;;22.30;52.50;;;;;;20937849;28;20044;-75
2022/10/16 11:52:20;;;;;;;2.50;0.90;;;22.40;52.20;;;;;;20931358;28;20039;-73
2022/10/16 12:03:07;;;;;;;1.05;0.45;;;22.40;51.80;;;;;;20893667;28;20046;-77
2022/10/16 12:13:30;;;;;;;0.52;0.30;;;22.50;51.70;;;;;;20935895;28;20075;-77
2022/10/16 12:23:30;;;;;;;1.95;0.80;;;22.60;51.30;;;;;;20964875;28;20032;-77
2022/10/16 12:33:35;;;;;;;1.00;0.60;;;22.40;51.60;;;;;;20930144;28;20446;-77
2022/10/16 12:43:42;;;;;;;1.00;0.47;;;21.90;52.40;;;;;;20933336;28;20298;-76
2022/10/16 12:53:43;;;;;;;6.28;0.50;;;21.50;53.30;;;;;;20948534;28;20040;-76
2022/10/16 13:04:03;;;;;;;1.27;0.68;;;21.20;53.90;;;;;;20938620;28;20103;-77
2022/10/16 13:14:35;;;;;;;1.50;0.50;;;21.10;54.30;;;;;;20957890;28;20028;-76
2022/10/16 13:24:59;;;;;;;0.70;0.30;;;21.10;54.20;;;;;;20920427;28;20406;-78
2022/10/16 13:35:00;;;;;;;1.73;0.45;;;21.20;54.20;;;;;;20945347;28;20082;-78
2022/10/16 13:45:01;;;;;;;2.95;0.50;;;21.20;54.10;;;;;;20941107;28;20045;-74
2022/10/16 13:55:02;;;;;;;1.40;0.40;;;21.20;54.00;;;;;;20950109;28;20106;-74
2022/10/16 14:05:04;;;;;;;0.20;0.20;;;21.20;54.00;;;;;;20973108;28;20033;-74
2022/10/16 14:15:05;;;;;;;1.17;0.30;;;21.20;53.90;;;;;;20939445;28;20475;-75
2022/10/16 14:25:35;;;;;;;0.60;0.30;;;21.20;54.00;;;;;;20946975;28;20055;-75
2022/10/16 14:35:37;;;;;;;2.60;0.40;;;21.30;54.10;;;;;;20889427;28;20135;-76
2022/10/16 14:45:41;;;;;;;0.20;0.20;;;21.40;53.90;;;;;;20952464;28;20037;-77
2022/10/16 14:55:42;;;;;;;3.22;0.43;;;22.30;52.10;;;;;;20967478;28;20040;-76
2022/10/16 15:05:42;;;;;;;4.07;0.40;;;22.80;51.20;;;;;;20928279;28;20482;-74
2022/10/16 15:15:44;;;;;;;2.42;0.63;;;23.10;50.30;;;;;;20935652;28;20082;-74
2022/10/16 15:25:52;;;;;;;1.98;0.60;;;23.30;49.80;;;;;;20813469;28;20033;-76
2022/10/16 15:35:54;;;;;;;2.33;0.35;;;23.40;49.60;;;;;;20851969;28;20056;-77
2022/10/16 15:46:01;;;;;;;0.63;0.37;;;23.40;49.60;;;;;;20832736;28;20506;-82
2022/10/16 15:56:06;;;;;;;0.30;0.20;;;23.40;49.60;;;;;;20889902;28;20298;-82
2022/10/16 16:06:08;;;;;;;3.73;0.70;;;23.30;50.20;;;;;;20874313;28;20040;-85
2022/10/16 16:16:10;;;;;;;1.65;0.52;;;23.30;49.60;;;;;;20849780;28;20045;-85
2022/10/16 16:26:35;;;;;;;2.40;0.40;;;23.20;49.70;;;;;;20838539;28;20045;-80
2022/10/16 16:36:40;;;;;;;0.65;0.22;;;23.10;49.80;;;;;;20858194;28;20040;-81
2022/10/16 16:46:43;;;;;;;1.00;0.40;;;23.00;50.00;;;;;;20871312;28;20052;-82
2022/10/16 16:56:44;;;;;;;0.57;0.35;;;23.00;50.10;;;;;;20852314;28;20068;-81
2022/10/16 17:06:47;;;;;;;0.28;0.20;;;22.90;50.10;;;;;;20860399;28;20040;-82
2022/10/16 17:16:51;;;;;;;0.50;0.30;;;22.90;50.20;;;;;;20886764;28;20045;-81
2022/10/16 17:26:58;;;;;;;1.23;0.33;;;22.80;50.30;;;;;;20827259;28;20424;-81
2022/10/16 17:36:58;;;;;;;0.47;0.28;;;22.80;51.00;;;;;;20879278;28;20029;-82
2022/10/16 17:47:00;;;;;;;0.70;0.20;;;22.70;50.40;;;;;;20867789;28;20036;-81
2022/10/16 17:57:07;;;;;;;0.93;0.40;;;22.70;50.40;;;;;;20832966;28;20295;-83
2022/10/16 18:07:09;;;;;;;0.32;0.20;;;22.70;50.50;;;;;;20872008;28;20083;-85
2022/10/16 18:17:11;;;;;;;0.30;0.30;;;22.70;50.50;;;;;;20834297;28;20191;-80
2022/10/16 18:27:14;;;;;;;1.17;0.52;;;22.60;50.60;;;;;;20893684;28;20124;-81
2022/10/16 18:37:18;;;;;;;0.77;0.30;;;22.60;50.60;;;;;;20873318;28;20038;-82
2022/10/16 18:47:21;;;;;;;1.23;0.60;;;22.60;50.70;;;;;;20878454;28;20118;-79
2022/10/16 18:57:21;;;;;;;0.82;0.60;;;22.60;50.80;;;;;;20861364;28;20064;-79
2022/10/16 19:07:22;;;;;;;0.10;0.10;;;22.50;50.80;;;;;;20830276;28;20478;-77
2022/10/16 19:17:22;;;;;;;1.17;0.30;;;22.40;50.80;;;;;;20875574;28;20041;-78
2022/10/16 19:27:23;;;;;;;1.25;0.40;;;22.40;50.90;;;;;;20832286;28;20044;-78
2022/10/16 19:37:26;;;;;;;2.80;0.30;;;22.40;51.00;;;;;;20830257;28;20475;-78
2022/10/16 19:47:31;;;;;;;0.63;0.40;;;22.30;51.10;;;;;;20856262;28;20029;-78
2022/10/16 19:57:35;;;;;;;0.50;0.45;;;22.30;51.10;;;;;;20889324;28;20084;-78
2022/10/16 20:07:36;;;;;;;0.80;0.63;;;22.30;51.20;;;;;;20863655;28;20507;-78
2022/10/16 20:17:37;;;;;;;1.08;0.30;;;22.20;51.20;;;;;;20828963;28;20114;-77
2022/10/16 20:27:37;;;;;;;0.83;0.40;;;22.20;51.30;;;;;;20835624;28;20496;-79
2022/10/16 20:37:43;;;;;;;0.30;0.30;;;22.20;51.40;;;;;;20826484;28;20052;-78
2022/10/16 20:47:47;;;;;;;0.50;0.40;;;22.20;51.40;;;;;;20847622;28;20064;-78
2022/10/16 20:57:47;;;;;;;0.45;0.30;;;22.10;51.50;;;;;;20841794;28;20039;-78
2022/10/16 21:07:48;;;;;;;0.57;0.30;;;22.10;51.50;;;;;;20845591;28;20466;-78
2022/10/16 21:17:49;;;;;;;0.50;0.40;;;22.00;51.50;;;;;;20870812;28;20494;-78
2022/10/16 21:27:50;;;;;;;0.60;0.40;;;22.00;51.60;;;;;;20827451;28;20059;-78
2022/10/16 21:37:55;;;;;;;0.95;0.30;;;22.00;51.70;;;;;;20820663;28;20025;-78
2022/10/16 21:47:55;;;;;;;1.40;0.60;;;22.00;51.70;;;;;;20853489;28;20038;-77
2022/10/16 21:57:57;;;;;;;1.90;0.67;;;22.00;51.80;;;;;;20833431;28;20037;-78
2022/10/16 22:08:01;;;;;;;1.00;0.63;;;21.90;51.80;;;;;;20843986;28;20279;-78
2022/10/16 22:18:02;;;;;;;1.33;0.55;;;21.90;51.90;;;;;;20873248;28;20114;-78
2022/10/16 22:28:06;;;;;;;1.17;0.60;;;21.90;52.00;;;;;;20866433;28;20029;-78
2022/10/16 22:38:07;;;;;;;2.50;0.70;;;21.90;52.00;;;;;;20843457;28;20398;-79
2022/10/16 22:48:09;;;;;;;0.82;0.60;;;21.90;52.20;;;;;;20841355;28;20037;-79
2022/10/16 22:58:11;;;;;;;0.80;0.43;;;21.80;52.10;;;;;;20808664;28;20045;-78
2022/10/16 23:08:12;;;;;;;1.33;0.50;;;21.90;52.30;;;;;;20825695;28;20033;-79
2022/10/16 23:18:13;;;;;;;1.07;0.60;;;21.80;52.30;;;;;;20846573;28;20124;-78
2022/10/16 23:28:14;;;;;;;0.50;0.40;;;21.80;52.40;;;;;;20831485;28;20277;-78
2022/10/16 23:38:17;;;;;;;1.00;0.50;;;21.70;52.40;;;;;;20830250;28;20072;-78
2022/10/16 23:48:18;;;;;;;0.45;0.40;;;21.70;52.50;;;;;;20844901;28;20044;-78
2022/10/16 23:58:18;;;;;;;1.13;0.65;;;21.70;52.60;;;;;;20838115;28;20056;-77
